LFBL/LIG METAR and TAF weather

Enter ICAO airport designator
Station Type Date Time Source
LFBL METAR 2020/02/20 19:00 UTC NOAA

LFBL 201900Z AUTO 24008KT 210V270 9999 SCT026 OVC033 09/05 Q1025 TEMPO 3000 -RADZ OVC003


Station Type Date Time Source
LFBL Decoded METAR 2020/02/20 19:00 UTC NOAA

Limoges, France (LFBL) 45-52N 001-11E 402M
Feb 20, 2020 - 02:00 PM EST / 2020.02.20 1900 UTC
Wind: from the WSW (240 degrees) at 9 MPH (8 KT) (direction variable):0
Visibility: greater than 7 mile(s):0
Sky conditions: overcast
Temperature: 48 F (9 C)
Dew Point: 41 F (5 C)
Relative Humidity: 75%
Pressure (altimeter): 30.27 in. Hg (1025 hPa)
ob: LFBL 201900Z AUTO 24008KT 210V270 9999 SCT026 OVC033 09/05 Q1025 TEMPO 3000 -RADZ OVC003
cycle: 19

Station Type Date Time Source
LFBL TAF 2020/02/20 18:42 UTC NOAA

TAF TAF LFBL 201700Z 2018/2118 26010KT 9999 OVC020
BECMG 2019/2021 OVC007
TEMPO 2020/2023 3000 -RADZ OVC003
BECMG 2022/2024 35008KT BKN016 PROB40 2101/2106 4000 BR PROB30 2102/2105 0800 FG

Example: see airport list